createdAt,value
2023-04-04T00:02:13.036Z,77.97
2023-04-04T00:04:43.747Z,78.13
2023-04-04T00:07:14.750Z,78.73
2023-04-04T00:09:45.555Z,79.00
2023-04-04T00:12:16.555Z,78.55
2023-04-04T00:14:47.572Z,77.90
2023-04-04T00:17:18.798Z,78.72
2023-04-04T00:19:49.299Z,78.13
2023-04-04T00:22:19.867Z,78.11
2023-04-04T00:24:51.663Z,78.31
2023-04-04T00:27:22.260Z,78.87
2023-04-04T00:29:52.790Z,78.84
2023-04-04T00:32:24.231Z,79.31
2023-04-04T00:34:56.149Z,79.71
2023-04-04T00:37:27.880Z,79.72
2023-04-04T00:39:58.387Z,79.70
2023-04-04T00:42:29.068Z,79.07
2023-04-04T00:44:59.627Z,79.36
2023-04-04T00:47:31.892Z,78.92
2023-04-04T00:50:02.752Z,78.69
2023-04-04T00:52:33.293Z,78.71
2023-04-04T00:55:04.349Z,78.68
2023-04-04T00:57:35.834Z,78.42
2023-04-04T01:00:09.426Z,78.59
2023-04-04T01:02:40.312Z,78.70
2023-04-04T01:05:11.426Z,79.17
2023-04-04T01:07:43.665Z,79.88
2023-04-04T01:10:16.447Z,79.91
2023-04-04T01:12:47.499Z,79.43
2023-04-04T01:15:19.682Z,79.35
2023-04-04T01:17:55.401Z,79.60
2023-04-04T01:20:34.983Z,79.60
2023-04-04T01:23:06.946Z,80.01
2023-04-04T01:25:37.515Z,79.67
2023-04-04T01:28:08.217Z,80.03
2023-04-04T01:30:42.188Z,79.79
2023-04-04T01:33:16.096Z,79.51
2023-04-04T01:35:55.549Z,79.95
2023-04-04T01:38:38.610Z,80.22
2023-04-04T01:41:12.057Z,79.60
2023-04-04T01:43:47.329Z,79.82
2023-04-04T01:46:19.335Z,80.18
2023-04-04T01:48:50.192Z,79.70
2023-04-04T01:51:21.780Z,78.93
2023-04-04T01:53:52.567Z,79.81
2023-04-04T01:56:24.887Z,79.69
2023-04-04T01:58:55.491Z,79.95
2023-04-04T02:01:26.320Z,80.36
2023-04-04T02:03:56.792Z,80.26
2023-04-04T02:06:27.689Z,80.28
2023-04-04T02:08:58.375Z,80.33
2023-04-04T02:11:28.767Z,80.69
2023-04-04T02:14:00.991Z,80.80
2023-04-04T02:16:31.544Z,81.00
2023-04-04T02:19:02.140Z,81.05
2023-04-04T02:21:32.762Z,81.00
2023-04-04T02:24:03.401Z,81.16
2023-04-04T02:26:34.359Z,81.37
2023-04-04T02:29:05.756Z,81.17
2023-04-04T02:31:36.540Z,81.14
2023-04-04T02:34:07.960Z,80.74
2023-04-04T02:36:38.700Z,80.51
2023-04-04T02:39:09.639Z,80.99
2023-04-04T02:41:41.553Z,80.98
2023-04-04T02:44:12.274Z,80.76
2023-04-04T02:46:42.993Z,80.71
2023-04-04T02:49:13.496Z,81.06
2023-04-04T02:51:44.163Z,81.24
2023-04-04T02:54:14.783Z,81.22
2023-04-04T02:56:45.453Z,81.03
2023-04-04T02:59:16.796Z,81.34
2023-04-04T03:01:48.425Z,81.05
2023-04-04T03:04:20.741Z,81.69
2023-04-04T03:06:52.423Z,81.80
2023-04-04T03:09:22.969Z,81.83
2023-04-04T03:11:53.951Z,82.06
2023-04-04T03:14:26.517Z,82.40
2023-04-04T03:16:58.746Z,82.09
2023-04-04T03:19:32.708Z,82.14
2023-04-04T03:22:03.354Z,82.07
2023-04-04T03:27:17.371Z,82.09
2023-04-04T03:29:48.927Z,82.20
2023-04-04T03:32:21.105Z,82.46
2023-04-04T03:34:53.507Z,82.66
2023-04-04T03:37:24.279Z,82.85
2023-04-04T03:39:54.843Z,82.53
2023-04-04T03:42:26.755Z,82.45
2023-04-04T03:44:57.219Z,82.51
2023-04-04T03:47:28.110Z,82.34
2023-04-04T03:49:58.767Z,82.44
2023-04-04T03:52:30.388Z,82.83
2023-04-04T03:55:02.426Z,82.97
2023-04-04T03:57:33.319Z,83.11
2023-04-04T04:00:05.371Z,83.23
2023-04-04T04:02:35.974Z,83.34
2023-04-04T04:05:07.763Z,83.36
2023-04-04T04:07:38.198Z,82.95
2023-04-04T04:10:09.439Z,83.01
2023-04-04T04:12:40.009Z,82.50
2023-04-04T04:15:11.794Z,82.66
2023-04-04T04:17:43.990Z,82.50
2023-04-04T04:20:14.803Z,82.79
2023-04-04T04:22:50.212Z,83.27
2023-04-04T04:25:21.531Z,82.66
2023-04-04T04:27:52.465Z,82.67
2023-04-04T04:30:24.443Z,82.95
2023-04-04T04:33:00.266Z,82.89
2023-04-04T04:35:31.704Z,82.76
2023-04-04T04:38:02.575Z,82.71
2023-04-04T04:40:35.228Z,82.69
2023-04-04T04:43:07.364Z,82.28
2023-04-04T04:45:40.180Z,82.26
2023-04-04T04:48:11.140Z,82.38
2023-04-04T04:50:42.003Z,82.19
2023-04-04T04:53:12.781Z,82.48
2023-04-04T04:55:43.921Z,82.49
2023-04-04T04:58:16.092Z,82.73
2023-04-04T05:00:46.938Z,83.14
2023-04-04T05:03:17.669Z,83.27
2023-04-04T05:05:48.581Z,83.23
2023-04-04T05:08:20.736Z,82.18
2023-04-04T05:10:53.280Z,82.04
2023-04-04T05:13:23.915Z,82.09
2023-04-04T05:15:54.609Z,82.06
2023-04-04T05:18:27.582Z,80.43
2023-04-04T05:20:58.328Z,74.75
2023-04-04T05:23:29.006Z,68.85
2023-04-04T05:25:59.694Z,63.41
2023-04-04T05:28:30.430Z,57.71
2023-04-04T05:31:01.220Z,55.03
2023-04-04T05:33:31.844Z,52.65
2023-04-04T05:36:03.373Z,50.36
2023-04-04T05:38:34.154Z,47.78
2023-04-04T05:41:04.961Z,46.85
2023-04-04T05:43:35.683Z,47.89
2023-04-04T05:46:06.447Z,46.66
2023-04-04T05:48:37.150Z,48.63
2023-04-04T05:51:07.687Z,48.74
2023-04-04T05:53:38.257Z,46.98
2023-04-04T05:56:08.960Z,45.96
2023-04-04T05:58:39.915Z,46.54
2023-04-04T06:01:13.007Z,46.17
2023-04-04T06:03:43.590Z,45.57
2023-04-04T06:06:14.625Z,45.71
2023-04-04T06:08:53.387Z,43.07
2023-04-04T06:11:18.490Z,43.20
2023-04-04T06:13:49.123Z,49.85
2023-04-04T06:16:24.542Z,57.96
2023-04-04T06:18:55.419Z,61.04
2023-04-04T06:21:26.763Z,63.77
2023-04-04T06:23:57.768Z,67.08
2023-04-04T06:26:30.236Z,67.69
2023-04-04T06:29:00.773Z,69.52
2023-04-04T06:31:31.554Z,70.25
2023-04-04T06:34:02.112Z,71.02
2023-04-04T06:36:33.166Z,71.15
2023-04-04T06:39:05.338Z,72.19
2023-04-04T06:41:37.671Z,72.67
2023-04-04T06:44:08.576Z,73.45
2023-04-04T06:46:40.310Z,74.04
2023-04-04T06:49:12.166Z,73.91
2023-04-04T06:51:44.518Z,73.53
2023-04-04T06:54:18.168Z,72.69
2023-04-04T06:56:51.539Z,72.33
2023-04-04T06:59:24.404Z,71.92
2023-04-04T07:01:56.937Z,72.17
2023-04-04T07:04:28.747Z,71.72
2023-04-04T07:07:00.885Z,71.87
2023-04-04T07:09:31.446Z,72.06
2023-04-04T07:12:03.782Z,72.00
2023-04-04T07:14:35.517Z,71.70
2023-04-04T07:17:17.112Z,71.31
2023-04-04T07:19:38.883Z,70.96
2023-04-04T07:22:09.566Z,70.18
2023-04-04T07:24:41.251Z,68.83
2023-04-04T07:27:13.490Z,69.27
2023-04-04T07:29:44.038Z,69.29
2023-04-04T07:32:16.041Z,69.22
2023-04-04T07:34:47.430Z,69.08
2023-04-04T07:37:19.880Z,68.59
2023-04-04T07:39:50.657Z,68.23
2023-04-04T07:42:25.632Z,67.84
2023-04-04T07:44:56.424Z,67.71
2023-04-04T07:47:27.729Z,67.15
2023-04-04T07:49:58.994Z,66.96
2023-04-04T07:52:29.885Z,66.48
2023-04-04T07:55:02.258Z,66.11
2023-04-04T07:57:33.146Z,66.40
2023-04-04T08:00:05.308Z,66.37
2023-04-04T08:02:39.877Z,64.95
2023-04-04T08:05:11.864Z,65.05
2023-04-04T08:07:42.787Z,64.92
2023-04-04T08:10:13.454Z,63.75
2023-04-04T08:12:48.000Z,63.54
2023-04-04T08:15:19.128Z,63.35
2023-04-04T08:17:50.297Z,64.12
2023-04-04T08:20:21.773Z,64.48
2023-04-04T08:22:52.546Z,63.68
2023-04-04T08:25:23.131Z,63.60
2023-04-04T08:27:53.688Z,62.63
2023-04-04T08:30:24.531Z,61.59
2023-04-04T08:32:55.170Z,62.62
2023-04-04T08:35:26.854Z,62.58
2023-04-04T08:37:58.967Z,61.34
2023-04-04T08:40:33.261Z,60.11
2023-04-04T08:43:06.279Z,59.77
2023-04-04T08:45:38.004Z,60.30
2023-04-04T08:48:13.223Z,60.17
2023-04-04T08:50:45.288Z,59.43
2023-04-04T08:53:17.143Z,58.16
2023-04-04T08:55:48.742Z,55.91
2023-04-04T08:58:19.578Z,56.78
2023-04-04T09:00:53.236Z,58.02
2023-04-04T09:03:29.924Z,59.12
2023-04-04T09:06:02.111Z,58.24
2023-04-04T09:08:32.820Z,58.03
2023-04-04T09:11:04.514Z,58.14
2023-04-04T09:13:37.980Z,56.34
2023-04-04T09:16:09.097Z,54.03
2023-04-04T09:18:40.469Z,54.03
2023-04-04T09:21:13.063Z,53.49
2023-04-04T09:23:44.753Z,52.97
2023-04-04T09:26:17.099Z,52.77
2023-04-04T09:28:52.217Z,52.61
2023-04-04T09:31:24.401Z,51.94
2023-04-04T09:33:55.037Z,51.78
2023-04-04T09:36:27.111Z,51.05
2023-04-04T09:38:58.312Z,49.83
2023-04-04T09:41:30.305Z,50.12
2023-04-04T09:44:02.152Z,50.07
2023-04-04T09:46:32.981Z,49.18
2023-04-04T09:49:04.840Z,50.43
2023-04-04T09:51:37.036Z,50.14
2023-04-04T09:54:15.642Z,49.70
2023-04-04T09:56:44.302Z,49.80
2023-04-04T09:59:18.088Z,49.78
2023-04-04T10:01:52.873Z,48.79
2023-04-04T10:04:27.353Z,47.91
2023-04-04T10:06:59.396Z,47.45
2023-04-04T10:09:30.134Z,47.79
2023-04-04T10:12:11.149Z,46.06
2023-04-04T10:14:41.984Z,44.47
2023-04-04T10:17:17.876Z,42.92
2023-04-04T10:19:55.017Z,44.71
2023-04-04T10:22:26.100Z,45.03
2023-04-04T10:25:00.488Z,47.47
2023-04-04T10:27:33.715Z,49.88
2023-04-04T10:30:05.177Z,50.78
2023-04-04T10:32:51.590Z,51.07
2023-04-04T10:35:26.252Z,50.61
2023-04-04T10:38:02.981Z,51.00
2023-04-04T10:40:40.078Z,50.14
2023-04-04T10:43:13.880Z,47.18
2023-04-04T10:45:46.595Z,46.84
2023-04-04T10:48:17.898Z,45.69
2023-04-04T10:50:52.563Z,45.58
2023-04-04T10:53:23.965Z,45.79
2023-04-04T10:55:57.686Z,45.67
2023-04-04T10:58:29.547Z,44.79
2023-04-04T11:01:00.895Z,44.51
2023-04-04T11:03:34.297Z,44.02
2023-04-04T11:06:09.825Z,43.73
2023-04-04T11:08:42.976Z,43.67
2023-04-04T11:11:22.523Z,44.04
2023-04-04T11:13:48.878Z,44.35
2023-04-04T11:16:21.206Z,44.34
2023-04-04T11:18:52.857Z,44.71
2023-04-04T11:21:25.799Z,44.25
2023-04-04T11:24:06.760Z,43.68
2023-04-04T11:26:40.416Z,44.42
2023-04-04T11:29:12.920Z,43.59
2023-04-04T11:31:50.740Z,43.28
2023-04-04T11:34:35.586Z,42.62
2023-04-04T11:37:18.916Z,41.26
2023-04-04T11:39:57.606Z,41.52
2023-04-04T11:42:36.833Z,42.15
2023-04-04T11:45:10.283Z,42.48
2023-04-04T11:47:42.337Z,42.66
2023-04-04T11:50:16.025Z,42.66
2023-04-04T11:52:46.745Z,42.82
2023-04-04T11:55:19.714Z,43.24
2023-04-04T11:57:52.677Z,41.39
2023-04-04T12:00:35.825Z,40.50
2023-04-04T12:03:11.498Z,41.53
2023-04-04T12:05:44.751Z,41.79
2023-04-04T12:08:16.249Z,42.72
2023-04-04T12:10:46.798Z,42.55
2023-04-04T12:13:17.920Z,42.47
2023-04-04T12:15:50.590Z,42.22
2023-04-04T12:18:24.090Z,42.58
2023-04-04T12:20:56.682Z,42.04
2023-04-04T12:23:29.010Z,40.60
2023-04-04T12:25:59.588Z,42.15
2023-04-04T12:28:33.232Z,42.85
2023-04-04T12:31:08.001Z,42.20
2023-04-04T12:33:39.841Z,42.72
2023-04-04T12:36:12.324Z,42.70
2023-04-04T12:39:08.800Z,41.90
2023-04-04T12:41:54.506Z,41.73
2023-04-04T12:44:30.830Z,42.09
2023-04-04T12:47:04.805Z,41.25
2023-04-04T12:49:44.227Z,41.40
2023-04-04T12:52:22.753Z,42.06
2023-04-04T12:55:06.892Z,42.88
2023-04-04T12:57:30.073Z,42.55
2023-04-04T13:00:04.404Z,42.67
2023-04-04T13:02:37.032Z,42.69
2023-04-04T13:05:11.143Z,42.11
2023-04-04T13:07:44.983Z,41.61
2023-04-04T13:10:18.188Z,41.60
2023-04-04T13:13:02.140Z,40.52
2023-04-04T13:15:52.875Z,41.01
2023-04-04T13:18:25.482Z,40.17
2023-04-04T13:20:57.524Z,37.75
2023-04-04T13:23:28.064Z,38.15
2023-04-04T13:26:00.377Z,38.35
2023-04-04T13:28:31.342Z,38.82
2023-04-04T13:31:06.829Z,38.85
2023-04-04T13:33:37.964Z,40.68
2023-04-04T13:36:11.574Z,40.95
2023-04-04T13:38:43.437Z,41.97
2023-04-04T13:41:14.231Z,41.10
2023-04-04T13:43:44.890Z,41.21
2023-04-04T13:46:15.901Z,40.68
2023-04-04T13:48:49.247Z,40.72
2023-04-04T13:51:22.760Z,39.42
2023-04-04T13:53:53.813Z,38.67
2023-04-04T13:56:24.496Z,37.50
2023-04-04T13:58:55.355Z,38.20
2023-04-04T14:01:26.324Z,37.90
2023-04-04T14:04:00.673Z,38.94
2023-04-04T14:06:32.604Z,40.23
2023-04-04T14:09:06.229Z,40.17
2023-04-04T14:11:36.850Z,40.42
2023-04-04T14:14:07.380Z,40.93
2023-04-04T14:16:37.980Z,40.71
2023-04-04T14:19:08.953Z,41.23
2023-04-04T14:21:39.831Z,41.05
2023-04-04T14:24:10.730Z,40.16
2023-04-04T14:26:43.158Z,40.51
2023-04-04T14:29:14.773Z,39.95
2023-04-04T14:31:49.213Z,39.12
2023-04-04T14:34:19.759Z,37.15
2023-04-04T14:36:52.149Z,37.35
2023-04-04T14:39:22.921Z,37.05
2023-04-04T14:41:56.465Z,37.93
2023-04-04T14:44:29.149Z,38.14
2023-04-04T14:47:00.283Z,37.16
2023-04-04T14:49:32.171Z,36.99
2023-04-04T14:52:02.982Z,37.35
2023-04-04T14:54:33.872Z,37.31
2023-04-04T14:57:07.307Z,37.41
2023-04-04T14:59:40.180Z,37.42
2023-04-04T15:02:09.844Z,37.27
2023-04-04T15:04:41.978Z,36.93
2023-04-04T15:07:15.674Z,37.23
2023-04-04T15:09:50.685Z,36.74
2023-04-04T15:12:21.811Z,36.57
2023-04-04T15:14:53.296Z,36.35
2023-04-04T15:17:26.112Z,36.98
2023-04-04T15:19:56.934Z,37.21
2023-04-04T15:22:27.708Z,38.04
2023-04-04T15:24:59.199Z,39.18
2023-04-04T15:27:29.832Z,39.51
2023-04-04T15:30:00.455Z,39.95
2023-04-04T15:32:31.364Z,40.47
2023-04-04T15:35:03.503Z,41.06
2023-04-04T15:37:36.533Z,40.98
2023-04-04T15:40:12.534Z,40.99
2023-04-04T15:42:45.625Z,41.01
2023-04-04T15:45:19.129Z,40.66
2023-04-04T15:47:49.822Z,41.03
2023-04-04T15:50:20.548Z,40.93
2023-04-04T15:52:51.280Z,41.37
2023-04-04T15:55:22.240Z,41.90
2023-04-04T15:57:53.493Z,42.28
2023-04-04T16:00:24.456Z,41.90
2023-04-04T16:03:02.073Z,42.09
2023-04-04T16:05:31.538Z,42.70
2023-04-04T16:08:03.791Z,42.96
2023-04-04T16:10:37.632Z,43.41
2023-04-04T16:13:08.204Z,43.96
2023-04-04T16:15:39.008Z,44.52
2023-04-04T16:18:09.910Z,45.01
2023-04-04T16:20:41.687Z,45.02
2023-04-04T16:23:13.839Z,45.30
2023-04-04T16:25:44.839Z,45.23
2023-04-04T16:28:17.428Z,45.71
2023-04-04T16:30:50.825Z,46.15
2023-04-04T16:33:26.053Z,46.24
2023-04-04T16:35:56.663Z,46.45
2023-04-04T16:38:27.138Z,47.26
2023-04-04T16:41:01.580Z,47.29
2023-04-04T16:43:32.169Z,47.33
2023-04-04T16:46:06.279Z,47.26
2023-04-04T16:48:36.781Z,47.50
2023-04-04T16:51:07.272Z,47.78
2023-04-04T16:53:37.904Z,47.81
2023-04-04T16:56:08.466Z,48.02
2023-04-04T16:58:39.948Z,47.85
2023-04-04T17:01:12.137Z,47.88
2023-04-04T17:03:42.880Z,48.08
2023-04-04T17:06:14.739Z,48.34
2023-04-04T17:08:46.635Z,48.88
2023-04-04T17:11:19.037Z,49.24
2023-04-04T17:13:52.876Z,49.06
2023-04-04T17:16:23.780Z,48.93
2023-04-04T17:18:55.102Z,49.35
2023-04-04T17:21:29.047Z,49.76
2023-04-04T17:24:01.250Z,49.16
2023-04-04T17:26:32.897Z,49.61
2023-04-04T17:29:06.010Z,50.05
2023-04-04T17:31:36.742Z,50.19
2023-04-04T17:34:07.675Z,50.73
2023-04-04T17:36:40.050Z,50.81
2023-04-04T17:39:10.890Z,50.73
2023-04-04T17:41:41.835Z,49.93
2023-04-04T17:44:12.923Z,50.35
2023-04-04T17:46:43.579Z,50.17
2023-04-04T17:49:20.643Z,50.41
2023-04-04T17:51:52.165Z,50.45
2023-04-04T17:54:23.254Z,51.15
2023-04-04T17:56:55.450Z,51.35
2023-04-04T17:59:26.516Z,51.38
2023-04-04T18:01:57.549Z,51.75
2023-04-04T18:04:28.432Z,51.70
2023-04-04T18:06:59.188Z,52.20
2023-04-04T18:09:32.027Z,51.96
2023-04-04T18:12:03.147Z,52.25
2023-04-04T18:14:33.824Z,52.09
2023-04-04T18:17:05.398Z,52.58
2023-04-04T18:19:36.342Z,52.75
2023-04-04T18:22:07.868Z,52.61
2023-04-04T18:24:38.583Z,52.73
2023-04-04T18:27:10.402Z,53.36
2023-04-04T18:29:43.870Z,53.19
2023-04-04T18:32:15.120Z,53.25
2023-04-04T18:34:47.932Z,53.42
2023-04-04T18:37:18.684Z,53.48
2023-04-04T18:39:49.677Z,54.05
2023-04-04T18:42:21.142Z,54.11
2023-04-04T18:44:53.781Z,54.11
2023-04-04T18:47:24.354Z,53.88
2023-04-04T18:49:57.079Z,54.45
2023-04-04T18:52:27.750Z,54.51
2023-04-04T18:54:58.891Z,54.59
2023-04-04T18:57:29.424Z,54.90
2023-04-04T19:00:01.133Z,54.96
2023-04-04T19:02:33.598Z,55.44
2023-04-04T19:05:07.134Z,55.31
2023-04-04T19:07:38.846Z,55.64
2023-04-04T19:10:10.418Z,55.84
2023-04-04T19:12:41.001Z,55.82
2023-04-04T19:15:13.707Z,56.15
2023-04-04T19:17:44.227Z,56.74
2023-04-04T19:20:14.694Z,57.15
2023-04-04T19:22:45.214Z,57.48
2023-04-04T19:25:16.584Z,57.71
2023-04-04T19:27:47.074Z,58.24
2023-04-04T19:30:46.695Z,58.43
2023-04-04T19:33:20.101Z,58.06
2023-04-04T19:35:59.702Z,58.38
2023-04-04T19:38:39.817Z,57.78
2023-04-04T19:41:22.903Z,58.17
2023-04-04T19:43:53.511Z,58.67
2023-04-04T19:46:26.949Z,58.62
2023-04-04T19:49:05.657Z,58.54
2023-04-04T19:51:43.100Z,58.82
2023-04-04T19:54:18.102Z,58.84
2023-04-04T19:56:51.559Z,59.53
2023-04-04T19:59:43.176Z,59.72
2023-04-04T20:02:36.779Z,60.04
2023-04-04T20:05:27.225Z,60.30
2023-04-04T20:08:01.594Z,60.00
2023-04-04T20:10:42.768Z,59.87
2023-04-04T20:13:15.054Z,59.52
2023-04-04T20:15:49.722Z,59.27
2023-04-04T20:18:28.390Z,59.66
2023-04-04T20:21:03.254Z,59.57
2023-04-04T20:23:46.825Z,60.02
2023-04-04T20:26:43.716Z,59.83
2023-04-04T20:29:18.819Z,57.89
2023-04-04T20:31:55.154Z,58.01
2023-04-04T20:34:46.827Z,57.52
2023-04-04T20:37:23.383Z,57.88
2023-04-04T20:39:55.743Z,57.66
2023-04-04T20:42:35.251Z,57.68
2023-04-04T20:45:15.476Z,58.26
2023-04-04T20:47:57.528Z,57.55
2023-04-04T20:50:34.270Z,56.19
2023-04-04T20:53:06.866Z,55.91
2023-04-04T20:55:38.853Z,56.31
2023-04-04T20:58:12.275Z,56.01
2023-04-04T21:00:43.771Z,56.90
2023-04-04T21:03:34.189Z,56.14
2023-04-04T21:06:13.844Z,56.88
2023-04-04T21:08:50.454Z,55.91
2023-04-04T21:11:30.456Z,56.07
2023-04-04T21:14:01.069Z,56.17
2023-04-04T21:16:31.759Z,57.20
2023-04-04T21:19:03.162Z,57.15
2023-04-04T21:21:33.759Z,56.26
2023-04-04T21:24:07.586Z,56.92
2023-04-04T21:26:42.906Z,56.53
2023-04-04T21:29:22.303Z,56.72
2023-04-04T21:31:55.082Z,56.42
2023-04-04T21:34:28.258Z,56.90
2023-04-04T21:37:01.965Z,56.92
2023-04-04T21:39:32.559Z,57.48
2023-04-04T21:42:07.944Z,56.10
2023-04-04T21:44:38.404Z,56.36
2023-04-04T21:47:10.347Z,56.35
2023-04-04T21:49:41.493Z,55.90
2023-04-04T21:52:12.112Z,55.53
2023-04-04T21:54:44.271Z,56.12
2023-04-04T21:57:15.094Z,56.09
2023-04-04T21:59:45.615Z,56.81
2023-04-04T22:02:16.594Z,56.96
2023-04-04T22:04:49.517Z,57.47
2023-04-04T22:07:20.164Z,56.84
2023-04-04T22:09:57.504Z,56.77
2023-04-04T22:12:29.314Z,56.84
2023-04-04T22:15:01.128Z,56.88
2023-04-04T22:17:35.337Z,57.21
2023-04-04T22:20:09.565Z,56.44
2023-04-04T22:22:41.877Z,56.39
2023-04-04T22:25:13.636Z,57.26
2023-04-04T22:27:46.897Z,56.79
2023-04-04T22:30:18.410Z,57.56
2023-04-04T22:32:48.875Z,58.33
2023-04-04T22:35:20.738Z,59.06
2023-04-04T22:37:51.456Z,59.39
2023-04-04T22:40:22.442Z,59.04
2023-04-04T22:42:53.072Z,59.81
2023-04-04T22:45:28.650Z,60.81
2023-04-04T22:48:03.501Z,60.90
2023-04-04T22:50:35.676Z,60.49
2023-04-04T22:53:06.196Z,60.06
2023-04-04T22:55:36.746Z,60.50
2023-04-04T22:58:09.156Z,61.09
2023-04-04T23:00:41.460Z,60.81
2023-04-04T23:03:12.213Z,61.54
2023-04-04T23:05:42.818Z,61.05
2023-04-04T23:08:15.189Z,61.04
2023-04-04T23:10:45.636Z,60.97
2023-04-04T23:13:16.251Z,60.49
2023-04-04T23:15:46.710Z,60.68
2023-04-04T23:18:17.658Z,60.85
2023-04-04T23:20:48.210Z,60.77
2023-04-04T23:23:18.712Z,61.67
2023-04-04T23:25:53.082Z,62.22
2023-04-04T23:28:23.473Z,62.19
2023-04-04T23:30:54.699Z,62.70
2023-04-04T23:33:25.327Z,63.13
2023-04-04T23:35:56.206Z,63.83
2023-04-04T23:38:26.772Z,64.28
2023-04-04T23:40:58.915Z,64.60
2023-04-04T23:43:29.775Z,64.80
2023-04-04T23:46:02.282Z,64.76
2023-04-04T23:48:34.680Z,64.71
2023-04-04T23:51:06.106Z,66.76
2023-04-04T23:53:37.042Z,67.26
2023-04-04T23:56:08.364Z,67.82
2023-04-04T23:58:39.203Z,67.47
